Celestine, IN (47521)

6:01 PM EDT on March 31, 2015 (GMT -0400)
Kellerville | | Change Station
CLOSE
Current Station
Personal Weather Station
Location: Dubois, IN
Elevation: 643 ft
Nearby Weather Stations

Elev 643 ft 38.48 °N, 86.83 °W | Updated 10 minutes ago

Clear
Clear
66.8 °F
Feels Like 66.8 °F
N
4.0
Wind Variable Wind from NNW
Gusts 14.0 mph

Today
High -- | Low -- °F
--% Chance of Precip.
Yesterday
High -- | Low -- °F
Precip. -- in
7:33 AM 8:09 PM
Waxing Gibbous, 89% visible
Pressure 29.91 in
Visibility 10.0 miles
Clouds Clear
Dew Point 41 °F
Humidity 39%
Rainfall 0.00 in
Snow Depth Not available.
UV 2 out of 12
Pollen 10.40 out of 12
Air Quality Not available.
Flu Activity Not available.
METAR KHNB 312155Z AUTO 34014G18KT 10SM CLR 20/02 A2991 RMK AO1

More Conditions Fewer Conditions

Pressure 29.91 in
Visibility 10.0 miles
Clouds Clear
Dew Point 41 °F
Humidity 39%
Rainfall 0.00 in
Snow Depth Not available.
UV 2 out of 12
Pollen 10.40 out of 12
Air Quality Not available.
Flu Activity Not available.
METAR KHNB 312155Z AUTO 34014G18KT 10SM CLR 20/02 A2991 RMK AO1

More Conditions Fewer Conditions

10-Day Weather Forecast

Almanac

Astronomy

Mar. 31, 2015 Rise Set
Actual Time
Civil Twilight
Nautical Twilight
Astronomical Twilight
Moon
Length of Visible Light
Length of Day
Tomorrow will be .
, % of the Moon is Illuminated

Today's Extremes

State Highs State Lows

Community

WunderPhotos

Upload Photos

1,809,849 photos uploaded!

WunderBlogs® & News

Nearby

Air Quality

  Air Quality AQ Index Pollutant
Not available.

Snow Depth

Station Depth Elevation

Earthquake Activity

City Distance Mag. Time & Date
Minimum magnitude displayed is 2.5.

Coastal Water Temperatures

Place Temperature

Stations

Nearby Weather Stations

Station Location Temp. Windchill Dew Point Humidity Wind Precip. Elev Updated Type